• Join FlightAware (Why Join?)
  • Login
  • US Flag 
09:09AM EST


 

Airport Tracker/Info


-or-


 

Live Flight TrackerFlight Track Log ✈ CSJ405 ✈ 29-Apr-2013 ✈ KCAK - KCDW

Flight Track Log - Related Links

Times and Time Zones

All times are in EDT time to prevent confusion due to time zone crossing. See the CSJ405 flight status page for this flight to view local times or setup timezone preferences in your user account.

Time Position Orientation Groundspeed Altitude Reporting Facility
EDT Latitude Longitude Course Direction KTS MPH feet Rate Location/Type
04:45PM 40.9067 -81.3689 90° East 133 153 3,500  Level Cleveland Center
04:46PM 40.9153 -81.3333 72° East 99 114 4,900 1,140 Climbing Cleveland Center
04:47PM 40.9217 -81.2947 78° East 114 131 5,800 840 Climbing Cleveland Center
04:48PM 40.9303 -81.2483 76° East 130 150 6,600 900 Climbing Cleveland Center
04:49PM 40.9167 -81.1282 90° East  Level FlightAware Approximate
04:49PM 40.9328 -81.2014 86° East 138 159 7,600  Level Cleveland Center
04:50PM 40.9167 -81.0669 90° East  Level FlightAware Approximate
04:50PM 40.9328 -81.1575 90° East 133 153 8,500  Level Cleveland Center
04:51PM 40.9167 -81.0055 90° East  Level FlightAware Approximate
04:51PM 40.9311 -81.1053 92° East 126 145 9,200  Level Cleveland Center
04:52PM 40.9292 -81.0531 93° East 126 145 9,900 600 Climbing Cleveland Center
04:53PM 40.9294 -81.0036 90° East 132 152 10,500 480 Climbing Cleveland Center
04:54PM 40.9297 -80.9514 90° East 138 159 10,900 240 Climbing Cleveland Center
04:55PM 40.9319 -80.8908 87° East 148 170 11,000  Climbing Cleveland Center
04:56PM 40.9383 -80.8278 82° East 161 185 11,000  Level Cleveland Center
04:57PM 40.9406 -80.7617 87° East 167 192 11,000  Level Cleveland Center
04:58PM 40.9428 -80.6986 87° East 172 198 11,000  Level Cleveland Center
04:59PM 40.9447 -80.6325 88° East 172 198 11,000  Level Cleveland Center
05:00PM 40.9428 -80.5694 92° East 172 198 11,000  Level Cleveland Center
05:01PM 40.9447 -80.5089 88° East 172 198 11,000  Level Cleveland Center
05:02PM 40.9425 -80.4428 93° East 172 198 11,000  Level Cleveland Center
05:03PM 40.9425 -80.3797 90° East 172 198 11,000  Level Cleveland Center
05:06PM 40.9483 -80.2036 87° East 187 215 11,000  Level Cleveland Center
05:07PM 40.9503 -80.1406 88° East 192 221 11,000  Level Cleveland Center
05:08PM 40.9500 -80.0800 90° East 180 207 11,000  Level Cleveland Center
05:09PM 40.9517 -80.0167 88° East 174 200 11,000  Level Cleveland Center
05:10PM 40.9514 -79.9536 90° East 174 200 11,000 300 Level Cleveland Center
05:11PM 40.9531 -79.8986 88° East 164 189 11,600 600 Climbing Cleveland Center
05:12PM 40.9550 -79.8464 87° East 151 174 12,300 600 Climbing Cleveland Center
05:13PM 40.9567 -79.7967 87° East 140 161 12,900 300 Climbing Cleveland Center
05:14PM 40.9542 -79.7392 93° East 140 161 13,000  Climbing Cleveland Center
05:15PM 40.9536 -79.6758 91° East 156 180 13,000  Level Cleveland Center
05:16PM 40.9553 -79.6153 88° East 162 186 13,000  Level Cleveland Center
05:17PM 40.9547 -79.5494 91° East 162 186 13,000  Level Cleveland Center
05:18PM 40.9561 -79.4861 88° East 162 186 13,000  Level Cleveland Center
05:19PM 40.9556 -79.4200 91° East 167 192 13,000  Level Cleveland Center
05:20PM 40.9569 -79.3569 88° East 167 192 13,000  Level Cleveland Center
05:21PM 40.9583 -79.2936 88° East 167 192 13,000  Level Cleveland Center
05:22PM 40.9597 -79.2303 88° East 172 198 13,100  Climbing Cleveland Center
05:23PM 40.9589 -79.1672 91° East 172 198 13,100  Level Cleveland Center
05:24PM 40.9581 -79.1011 91° East 172 198 13,100  Level Cleveland Center
05:25PM 40.9594 -79.0378 88° East 172 198 13,100  Level Cleveland Center
05:26PM 40.9606 -78.9719 89° East 172 198 13,100  Level Cleveland Center
05:27PM 40.9617 -78.9086 89° East 177 204 13,100  Level Cleveland Center
05:28PM 40.9608 -78.8453 91° East 177 204 13,100  Level Cleveland Center
05:29PM 40.9597 -78.7822 91° East 177 204 13,100 -60 Level Cleveland Center
05:31PM 40.9578 -78.6467 91° East 177 204 13,000 -60 Descending New York Center
05:32PM 40.9578 -78.5836 90° East 177 204 13,000  Level New York Center
05:33PM 40.9578 -78.5231 90° East 177 204 13,000  Level New York Center
05:34PM 40.9600 -78.4572 87° East 177 204 13,000  Level New York Center
05:35PM 40.9622 -78.3889 88° East 172 198 13,000  Level New York Center
05:36PM 40.9622 -78.3256 90° East 172 198 13,000  Level New York Center
05:37PM 40.9639 -78.2625 88° East 172 198 13,000  Level New York Center
05:38PM 40.9658 -78.1994 88° East 172 198 13,000  Level New York Center
05:39PM 40.9697 -78.1367 85° East 172 198 13,000  Level New York Center
05:40PM 40.9697 -78.0708 90° East 172 198 13,000  Level New York Center
05:41PM 40.9717 -78.0050 88° East 177 204 13,000  Level New York Center
05:42PM 40.9733 -77.9419 88° East 177 204 13,000  Level New York Center
05:43PM 40.9753 -77.8761 88° East 177 204 13,000  Level New York Center
05:44PM 40.9769 -77.8131 88° East 177 204 13,000  Level New York Center
05:45PM 40.9767 -77.7469 90° East 177 204 13,000  Level New York Center
05:46PM 40.9781 -77.6894 88° East 177 204 13,000  Level New York Center
05:47PM 40.9797 -77.6264 88° East 177 204 13,000  Level New York Center
05:48PM 40.9814 -77.5606 88° East 177 204 13,000  Level New York Center
05:49PM 40.9808 -77.4944 91° East 177 204 13,000 -240 Level New York Center
05:50PM 40.9828 -77.4258 88° East 177 204 12,600 -300 Descending New York Center
05:51PM 40.9825 -77.3572 90° East 177 204 12,400 -300 Descending New York Center
05:52PM 40.9800 -77.2881 93° East 177 204 12,100 -360 Descending New York Center
05:53PM 40.9817 -77.2194 88° East 177 204 11,700 -420 Descending New York Center
05:54PM 40.9833 -77.1511 88° East 177 204 11,300 -420 Descending New York Center
05:55PM 40.9847 -77.0825 88° East 177 204 10,900 -360 Descending New York Center
05:56PM 40.9864 -77.0139 88° East 177 204 10,600 -360 Descending New York Center
05:57PM 40.9856 -76.9478 91° East 177 204 10,200 -420 Descending New York Center
05:58PM 40.9850 -76.8789 91° East 177 204 9,800 -480 Descending New York Center
05:59PM 40.9822 -76.8100 93° East 177 204 9,300 -480 Descending New York Center
06:00PM 40.9858 -76.7389 86° East 177 204 8,900 -240 Descending New York Center
06:01PM 40.9872 -76.6703 88° East 177 204 8,900  Level New York Center
06:02PM 40.9908 -76.6017 86° East 182 209 8,900  Level New York Center
06:03PM 40.9922 -76.5303 89° East 177 204 8,900  Level New York Center
06:04PM 40.9911 -76.4669 91° East 177 204 8,900  Level New York Center
06:05PM 40.9900 -76.4008 91° East 177 204 8,900  Level New York Center
06:06PM 40.9906 -76.3461 89° East 177 204 8,900 -180 Level New York Center
06:07PM 40.9917 -76.2775 89° East 182 209 8,600 -420 Descending New York Center
06:08PM 40.9931 -76.2006 89° East 182 209 8,100 -420 Descending New York Center
06:09PM 40.9919 -76.1344 91° East 182 209 7,800 -420 Descending New York Center
06:10PM 40.9931 -76.0658 89° East 182 209 7,300 -540 Descending New York Center
06:11PM 40.9936 -76.0053 89° East 182 209 6,800 -660 Descending New York Center
06:12PM 40.9950 -75.9283 89° East 182 209 6,100 -600 Descending New York Center
06:13PM 40.9978 -75.8600 87° East 177 204 5,600 -120 Descending New York Center
06:15PM 40.9948 -75.7762 93° East  Level FlightAware Approximate
06:22PM 40.9833 -75.3360 90° East  Level FlightAware Approximate
06:23PM 40.9834 -75.2731 90° East  Level FlightAware Approximate
06:24PM 40.9835 -75.2102 90° East  Level FlightAware Approximate
06:25PM 40.9835 -75.1474 90° East  Level FlightAware Approximate
06:26PM 40.9835 -75.0845 90° East  Level FlightAware Approximate
06:27PM 40.9835 -75.0216 90° East  Level FlightAware Approximate
06:27PM 41.0000 -75.0000 108° East 168 193 5,100  Level New York TRACON
06:28PM 40.9834 -74.9587 90° East  Level FlightAware Approximate
06:28PM 40.9833 -74.9333 108° East 164 189 5,000  Level New York TRACON
06:29PM 40.9833 -74.8958 90° East  Level FlightAware Approximate
06:29PM 40.9667 -74.8667 108° East 165 190 4,900  Level New York TRACON
06:30PM 40.9774 -74.8339 103° East  Level FlightAware Approximate
06:30PM 40.9500 -74.8167 114° Southeast 169 194 4,400  Level New York TRACON
06:31PM 40.9663 -74.7728 104° East  Level FlightAware Approximate
06:31PM 40.9333 -74.7667 114° Southeast 163 188 4,100  Level New York TRACON
06:32PM 40.9552 -74.7116 104° East  Level FlightAware Approximate
06:32PM 40.9500 -74.7000 72° East 172 198 4,100  Level New York TRACON
06:33PM 40.9420 -74.6513 108° East  Level FlightAware Approximate
06:33PM 40.9667 -74.6500 66° East 172 198 4,100  Level New York TRACON
06:34PM 40.9667 -74.6000 90° East 165 190 4,100  Level New York TRACON
06:35PM 40.9833 -74.5333 72° East 160 184 4,100 -60 Level New York TRACON
06:36PM 40.9833 -74.4667 90° East 160 184 4,000 -360 Descending New York TRACON
06:37PM 41.0000 -74.4167 66° East 166 191 3,400 -600 Descending New York TRACON
06:38PM 41.0000 -74.3667 90° East 167 192 2,900 -540 Descending New York TRACON
06:39PM 41.0000 -74.3000 90° East 177 204 2,300 -420 Descending New York TRACON
06:40PM 40.9667 -74.3000 180° South 147 169 2,100 -480 Descending New York TRACON
06:41PM 40.9333 -74.2833 159° South 145 167 1,500 -600 Descending New York TRACON
06:42PM 40.8833 -74.2500 153° Southeast 147 169 900 -600 Descending New York TRACON
06:45PM 40.8667 -74.2667 217° Southwest  Level FlightAware Approximate
06:52PM 40.8752 -74.2814 217° Southwest  Level Estimated
06:53PM 40.8752 -74.2814 217° Southwest  Level Estimated